createdAt,value
2018-02-02T00:01:52.668Z,99.90
2018-02-02T00:04:20.264Z,99.90
2018-02-02T00:06:47.821Z,99.90
2018-02-02T00:09:15.396Z,99.90
2018-02-02T00:11:42.934Z,99.90
2018-02-02T00:14:11.243Z,99.90
2018-02-02T00:16:38.791Z,99.90
2018-02-02T00:19:06.396Z,99.90
2018-02-02T00:21:33.971Z,99.90
2018-02-02T00:24:02.283Z,99.90
2018-02-02T00:26:31.387Z,99.90
2018-02-02T00:28:58.974Z,99.90
2018-02-02T00:31:27.963Z,99.90
2018-02-02T00:33:57.149Z,99.90
2018-02-02T00:36:25.487Z,99.90
2018-02-02T00:38:53.069Z,99.90
2018-02-02T00:41:20.622Z,99.90
2018-02-02T00:43:48.202Z,99.90
2018-02-02T00:46:16.309Z,99.90
2018-02-02T00:48:43.889Z,99.90
2018-02-02T00:51:18.169Z,99.90
2018-02-02T00:53:47.269Z,99.90
2018-02-02T00:56:14.814Z,99.90
2018-02-02T00:58:43.999Z,99.90
2018-02-02T01:01:12.496Z,99.90
2018-02-02T01:03:40.089Z,99.90
2018-02-02T01:06:09.172Z,99.90
2018-02-02T01:08:36.827Z,99.90
2018-02-02T01:11:05.053Z,99.90
2018-02-02T01:13:33.951Z,99.70
2018-02-02T01:16:02.323Z,99.40
2018-02-02T01:18:30.780Z,99.40
2018-02-02T01:20:58.377Z,99.50
2018-02-02T01:23:26.684Z,99.40
2018-02-02T01:25:54.652Z,99.40
2018-02-02T01:28:22.195Z,99.00
2018-02-02T01:30:50.491Z,99.60
2018-02-02T01:33:18.056Z,99.50
2018-02-02T01:35:46.845Z,99.30
2018-02-02T01:38:14.395Z,99.40
2018-02-02T01:40:41.942Z,99.10
2018-02-02T01:43:09.527Z,98.60
2018-02-02T01:45:37.391Z,99.30
2018-02-02T01:48:16.842Z,99.60
2018-02-02T01:50:45.398Z,99.50
2018-02-02T01:53:13.736Z,99.80
2018-02-02T01:55:41.874Z,99.90
2018-02-02T01:58:09.424Z,99.90
2018-02-02T02:00:37.722Z,99.90
2018-02-02T02:03:06.252Z,99.90
2018-02-02T02:05:34.793Z,99.90
2018-02-02T02:08:02.413Z,99.90
2018-02-02T02:10:29.969Z,99.90
2018-02-02T02:12:57.543Z,99.90
2018-02-02T02:15:26.787Z,99.90
2018-02-02T02:17:56.947Z,99.90
2018-02-02T02:20:25.277Z,99.90
2018-02-02T02:22:53.613Z,99.90
2018-02-02T02:25:21.147Z,99.90
2018-02-02T02:27:48.731Z,99.90
2018-02-02T02:30:16.263Z,99.80
2018-02-02T02:32:44.973Z,99.20
2018-02-02T02:35:14.195Z,98.80
2018-02-02T02:37:43.187Z,98.80
2018-02-02T02:40:10.728Z,98.80
2018-02-02T02:42:38.308Z,98.80
2018-02-02T02:45:06.568Z,98.80
2018-02-02T02:47:34.161Z,99.30
2018-02-02T02:50:02.534Z,99.10
2018-02-02T02:52:32.987Z,99.30
2018-02-02T02:55:00.909Z,99.30
2018-02-02T02:57:29.274Z,99.00
2018-02-02T02:59:57.578Z,99.00
2018-02-02T03:02:25.160Z,99.10
2018-02-02T03:04:52.730Z,99.10
2018-02-02T03:07:20.384Z,99.50
2018-02-02T03:09:47.927Z,99.50
2018-02-02T03:12:15.498Z,99.90
2018-02-02T03:14:43.067Z,99.60
2018-02-02T03:17:10.659Z,99.90
2018-02-02T03:19:38.182Z,99.40
2018-02-02T03:22:05.747Z,98.80
2018-02-02T03:24:34.579Z,99.10
2018-02-02T03:27:02.202Z,99.70
2018-02-02T03:29:29.922Z,99.60
2018-02-02T03:31:58.271Z,99.10
2018-02-02T03:34:27.407Z,99.10
2018-02-02T03:36:55.928Z,99.00
2018-02-02T03:39:24.341Z,99.60
2018-02-02T03:42:00.237Z,99.50
2018-02-02T03:44:27.796Z,99.50
2018-02-02T03:46:56.192Z,99.40
2018-02-02T03:49:25.640Z,99.80
2018-02-02T03:51:53.237Z,99.10
2018-02-02T03:54:24.034Z,99.70
2018-02-02T03:56:52.491Z,99.70
2018-02-02T03:59:20.021Z,99.70
2018-02-02T04:01:49.983Z,99.90
2018-02-02T04:04:19.790Z,99.40
2018-02-02T04:06:50.116Z,99.30
2018-02-02T04:09:19.799Z,99.20
2018-02-02T04:11:49.991Z,98.90
2018-02-02T04:14:17.544Z,98.90
2018-02-02T04:16:47.913Z,98.50
2018-02-02T04:19:18.003Z,99.70
2018-02-02T04:21:48.762Z,99.70
2018-02-02T04:24:17.075Z,99.70
2018-02-02T04:26:44.922Z,99.10
2018-02-02T04:29:15.394Z,99.90
2018-02-02T04:31:45.068Z,99.90
2018-02-02T04:34:17.529Z,99.90
2018-02-02T04:36:46.053Z,99.10
2018-02-02T04:39:14.379Z,98.20
2018-02-02T04:41:43.454Z,97.70
2018-02-02T04:44:10.990Z,97.20
2018-02-02T04:46:39.344Z,96.90
2018-02-02T04:49:06.887Z,96.90
2018-02-02T04:51:35.674Z,97.50
2018-02-02T04:54:03.232Z,97.40
2018-02-02T04:56:30.897Z,97.80
2018-02-02T04:59:00.078Z,98.30
2018-02-02T05:01:28.448Z,98.30
2018-02-02T05:03:56.524Z,98.00
2018-02-02T05:06:24.099Z,97.90
2018-02-02T05:08:51.641Z,98.40
2018-02-02T05:11:20.622Z,97.90
2018-02-02T05:13:48.155Z,97.90
2018-02-02T05:16:15.731Z,98.10
2018-02-02T05:18:44.062Z,98.20
2018-02-02T05:21:13.582Z,98.40
2018-02-02T05:23:41.106Z,98.40
2018-02-02T05:26:08.695Z,99.00
2018-02-02T05:28:36.220Z,99.10
2018-02-02T05:31:05.322Z,99.40
2018-02-02T05:33:34.171Z,99.90
2018-02-02T05:36:01.775Z,99.90
2018-02-02T05:38:29.319Z,99.90
2018-02-02T05:40:56.882Z,99.80
2018-02-02T05:43:24.419Z,99.90
2018-02-02T05:45:54.126Z,99.80
2018-02-02T05:48:26.371Z,99.80
2018-02-02T05:50:53.954Z,99.80
2018-02-02T05:53:22.284Z,99.60
2018-02-02T05:55:52.331Z,99.90
2018-02-02T05:58:22.858Z,99.90
2018-02-02T06:00:51.242Z,99.90
2018-02-02T06:03:19.561Z,99.90
2018-02-02T06:05:49.471Z,99.90
2018-02-02T06:08:18.674Z,99.40
2018-02-02T06:10:48.279Z,99.40
2018-02-02T06:13:16.816Z,99.50
2018-02-02T06:15:44.460Z,99.80
2018-02-02T06:18:12.846Z,99.90
2018-02-02T06:20:42.501Z,99.90
2018-02-02T06:23:13.790Z,99.90
2018-02-02T06:25:42.049Z,99.90
2018-02-02T06:28:12.825Z,99.90
2018-02-02T06:30:41.153Z,99.90
2018-02-02T06:33:08.744Z,99.90
2018-02-02T06:38:20.946Z,99.90
2018-02-02T06:40:49.366Z,99.90
2018-02-02T06:43:17.044Z,99.90
2018-02-02T06:45:45.470Z,99.90
2018-02-02T06:50:50.915Z,99.90
2018-02-02T06:53:19.342Z,99.90
2018-02-02T06:55:48.334Z,99.90
2018-02-02T06:58:19.261Z,99.90
2018-02-02T07:00:47.662Z,99.90
2018-02-02T07:03:16.996Z,99.90
2018-02-02T07:05:45.766Z,99.90
2018-02-02T07:08:13.352Z,99.90
2018-02-02T07:10:42.620Z,99.90
2018-02-02T07:13:11.408Z,99.80
2018-02-02T07:15:40.768Z,99.90
2018-02-02T07:18:09.268Z,99.90
2018-02-02T07:20:36.914Z,99.90
2018-02-02T07:23:05.734Z,99.90
2018-02-02T07:25:33.254Z,99.90
2018-02-02T07:28:00.860Z,99.90
2018-02-02T07:30:28.395Z,99.90
2018-02-02T07:32:55.936Z,99.90
2018-02-02T07:35:23.562Z,99.80
2018-02-02T07:37:51.857Z,99.80
2018-02-02T07:40:20.265Z,99.50
2018-02-02T07:42:47.793Z,99.40
2018-02-02T07:45:15.411Z,98.80
2018-02-02T07:47:42.958Z,98.70
2018-02-02T07:50:11.325Z,98.70
2018-02-02T07:52:39.753Z,98.70
2018-02-02T07:55:09.336Z,98.00
2018-02-02T07:57:37.942Z,98.00
2018-02-02T08:00:06.277Z,96.90
2018-02-02T08:02:33.873Z,96.90
2018-02-02T08:05:01.410Z,97.00
2018-02-02T08:07:29.748Z,95.90
2018-02-02T08:09:57.289Z,95.90
2018-02-02T08:12:24.862Z,95.10
2018-02-02T08:14:52.830Z,95.10
2018-02-02T08:17:20.410Z,94.40
2018-02-02T08:19:47.935Z,94.00
2018-02-02T08:22:16.443Z,93.90
2018-02-02T08:24:44.014Z,93.80
2018-02-02T08:27:12.272Z,93.20
2018-02-02T08:29:39.875Z,92.60
2018-02-02T08:32:08.382Z,91.90
2018-02-02T08:34:36.695Z,90.70
2018-02-02T08:37:04.279Z,90.70
2018-02-02T08:39:31.816Z,90.30
2018-02-02T08:41:59.999Z,89.10
2018-02-02T08:44:28.311Z,87.60
2018-02-02T08:46:57.477Z,85.80
2018-02-02T08:49:25.012Z,85.80
2018-02-02T08:51:52.587Z,85.00
2018-02-02T08:54:20.125Z,84.60
2018-02-02T08:56:48.475Z,83.20
2018-02-02T08:59:16.335Z,83.20
2018-02-02T09:01:49.543Z,82.40
2018-02-02T09:04:17.798Z,81.70
2018-02-02T09:06:46.929Z,81.10
2018-02-02T09:09:14.462Z,80.60
2018-02-02T09:11:42.982Z,79.60
2018-02-02T09:14:11.520Z,79.20
2018-02-02T09:16:39.330Z,79.00
2018-02-02T09:19:07.243Z,78.80
2018-02-02T09:21:34.799Z,78.40
2018-02-02T09:24:02.326Z,78.80
2018-02-02T09:26:29.893Z,78.50
2018-02-02T09:28:58.611Z,78.20
2018-02-02T09:31:27.988Z,77.80
2018-02-02T09:33:55.526Z,77.90
2018-02-02T09:36:23.095Z,75.90
2018-02-02T09:38:51.413Z,76.50
2018-02-02T09:41:19.742Z,75.00
2018-02-02T09:43:47.796Z,75.00
2018-02-02T09:46:16.022Z,75.10
2018-02-02T09:48:43.581Z,73.80
2018-02-02T09:51:11.163Z,73.60
2018-02-02T09:53:38.699Z,73.30
2018-02-02T09:56:07.063Z,73.30
2018-02-02T09:58:34.638Z,73.10
2018-02-02T10:01:03.333Z,71.60
2018-02-02T10:03:30.876Z,71.60
2018-02-02T10:05:58.451Z,72.20
2018-02-02T10:08:25.980Z,71.40
2018-02-02T10:10:55.136Z,70.00
2018-02-02T10:13:22.667Z,70.00
2018-02-02T10:15:51.001Z,68.90
2018-02-02T10:18:18.577Z,68.80
2018-02-02T10:20:46.098Z,70.70
2018-02-02T10:23:15.140Z,71.20
2018-02-02T10:25:42.679Z,71.20
2018-02-02T10:28:11.295Z,70.80
2018-02-02T10:30:38.818Z,70.80
2018-02-02T10:33:07.364Z,71.20
2018-02-02T10:35:35.607Z,73.10
2018-02-02T10:38:03.999Z,71.30
2018-02-02T10:40:31.527Z,72.50
2018-02-02T10:42:59.102Z,71.90
2018-02-02T10:45:26.630Z,70.90
2018-02-02T10:47:55.013Z,70.60
2018-02-02T10:50:22.546Z,68.60
2018-02-02T10:52:51.122Z,70.00
2018-02-02T10:55:18.694Z,69.40
2018-02-02T10:57:47.080Z,70.50
2018-02-02T11:00:14.651Z,68.70
2018-02-02T11:02:48.738Z,67.20
2018-02-02T11:05:17.484Z,67.20
2018-02-02T11:07:45.008Z,67.00
2018-02-02T11:10:13.407Z,66.50
2018-02-02T11:12:40.922Z,66.00
2018-02-02T11:15:08.503Z,66.90
2018-02-02T11:17:37.083Z,64.10
2018-02-02T11:20:06.306Z,65.30
2018-02-02T11:22:33.836Z,65.20
2018-02-02T11:25:01.411Z,64.20
2018-02-02T11:27:29.818Z,63.90
2018-02-02T11:29:57.406Z,65.50
2018-02-02T11:32:25.690Z,65.70
2018-02-02T11:34:54.949Z,65.80
2018-02-02T11:37:22.499Z,65.80
2018-02-02T11:39:50.106Z,64.60
2018-02-02T11:42:17.723Z,64.10
2018-02-02T11:44:46.077Z,65.00
2018-02-02T11:47:14.424Z,65.00
2018-02-02T11:49:42.000Z,65.30
2018-02-02T11:52:09.549Z,65.20
2018-02-02T11:54:38.207Z,65.80
2018-02-02T11:57:10.184Z,66.30
2018-02-02T11:59:38.562Z,66.60
2018-02-02T12:02:06.092Z,65.90
2018-02-02T12:04:33.681Z,65.30
2018-02-02T12:07:01.207Z,67.10
2018-02-02T12:09:28.784Z,65.20
2018-02-02T12:11:56.492Z,64.80
2018-02-02T12:14:25.542Z,66.20
2018-02-02T12:16:53.063Z,66.10
2018-02-02T12:19:22.219Z,66.20
2018-02-02T12:21:55.384Z,66.10
2018-02-02T12:24:29.551Z,66.20
2018-02-02T12:26:57.879Z,65.60
2018-02-02T12:29:36.178Z,66.10
2018-02-02T12:35:09.102Z,64.90
2018-02-02T12:37:37.499Z,64.90
2018-02-02T12:40:06.020Z,66.20
2018-02-02T12:42:33.551Z,66.30
2018-02-02T12:45:01.131Z,67.60
2018-02-02T12:47:35.384Z,67.90
2018-02-02T12:50:06.844Z,67.90
2018-02-02T12:52:34.392Z,68.50
2018-02-02T12:55:02.919Z,69.20
2018-02-02T12:57:31.631Z,69.20
2018-02-02T12:59:59.226Z,68.60
2018-02-02T13:02:28.319Z,69.20
2018-02-02T13:04:56.695Z,69.10
2018-02-02T13:07:24.255Z,69.90
2018-02-02T13:09:52.739Z,70.00
2018-02-02T13:12:20.259Z,70.00
2018-02-02T13:14:47.831Z,70.20
2018-02-02T13:17:16.267Z,70.70
2018-02-02T13:19:44.406Z,70.80
2018-02-02T13:22:11.937Z,70.30
2018-02-02T13:24:39.510Z,69.80
2018-02-02T13:27:07.035Z,70.30
2018-02-02T13:29:34.619Z,70.10
2018-02-02T13:32:02.912Z,70.30
2018-02-02T13:34:32.228Z,70.70
2018-02-02T13:37:01.415Z,71.50
2018-02-02T13:39:30.274Z,71.50
2018-02-02T13:41:58.764Z,71.50
2018-02-02T13:44:27.275Z,72.40
2018-02-02T13:46:54.809Z,72.70
2018-02-02T13:49:23.145Z,73.20
2018-02-02T13:51:51.512Z,73.20
2018-02-02T13:54:19.086Z,72.90
2018-02-02T13:56:47.454Z,73.30
2018-02-02T13:59:16.720Z,73.70
2018-02-02T14:01:44.247Z,73.70
2018-02-02T14:04:12.759Z,74.30
2018-02-02T14:06:40.292Z,73.30
2018-02-02T14:09:08.642Z,73.70
2018-02-02T14:11:36.959Z,73.60
2018-02-02T14:14:05.218Z,73.90
2018-02-02T14:16:33.551Z,74.30
2018-02-02T14:19:01.175Z,74.50
2018-02-02T14:21:29.403Z,74.20
2018-02-02T14:23:57.012Z,75.00
2018-02-02T14:26:24.573Z,75.10
2018-02-02T14:28:52.908Z,76.20
2018-02-02T14:31:21.295Z,76.20
2018-02-02T14:33:50.109Z,77.00
2018-02-02T14:36:17.685Z,77.30
2018-02-02T14:38:45.251Z,78.10
2018-02-02T14:41:14.831Z,78.80
2018-02-02T14:43:43.172Z,80.60
2018-02-02T14:46:10.703Z,80.50
2018-02-02T14:48:39.118Z,82.20
2018-02-02T14:51:06.652Z,83.80
2018-02-02T14:53:35.819Z,84.40
2018-02-02T14:56:04.313Z,84.30
2018-02-02T14:58:31.928Z,83.10
2018-02-02T15:01:00.253Z,82.90
2018-02-02T15:03:28.245Z,83.30
2018-02-02T15:05:56.565Z,83.40
2018-02-02T15:08:24.183Z,83.40
2018-02-02T15:10:52.483Z,83.50
2018-02-02T15:13:21.292Z,84.30
2018-02-02T15:15:48.829Z,82.80
2018-02-02T15:18:16.359Z,83.50
2018-02-02T15:20:45.632Z,83.60
2018-02-02T15:23:14.497Z,84.20
2018-02-02T15:25:42.085Z,84.00
2018-02-02T15:28:09.610Z,83.00
2018-02-02T15:30:37.183Z,82.10
2018-02-02T15:33:04.731Z,81.60
2018-02-02T15:35:32.359Z,82.10
2018-02-02T15:38:00.061Z,81.60
2018-02-02T15:40:29.421Z,81.10
2018-02-02T15:42:57.761Z,81.00
2018-02-02T15:45:26.121Z,78.60
2018-02-02T15:47:54.850Z,78.50
2018-02-02T15:50:23.580Z,80.00
2018-02-02T15:52:52.728Z,81.10
2018-02-02T15:55:20.314Z,81.10
2018-02-02T15:57:47.839Z,81.20
2018-02-02T16:00:18.978Z,81.50
2018-02-02T16:02:47.286Z,81.00
2018-02-02T16:05:14.862Z,80.80
2018-02-02T16:07:42.391Z,79.60
2018-02-02T16:10:10.799Z,79.70
2018-02-02T16:12:38.342Z,80.50
2018-02-02T16:15:05.944Z,80.10
2018-02-02T16:17:34.319Z,93.40
2018-02-02T16:20:01.936Z,93.50
2018-02-02T16:22:30.194Z,93.10
2018-02-02T16:24:58.599Z,90.40
2018-02-02T16:27:26.168Z,90.40
2018-02-02T16:29:54.443Z,89.80
2018-02-02T16:32:21.979Z,89.70
2018-02-02T16:34:50.398Z,90.40
2018-02-02T16:37:18.505Z,91.30
2018-02-02T16:39:46.899Z,95.20
2018-02-02T16:42:15.307Z,96.00
2018-02-02T16:44:44.423Z,92.60
2018-02-02T16:47:12.714Z,92.30
2018-02-02T16:49:41.054Z,92.40
2018-02-02T16:52:08.650Z,92.40
2018-02-02T16:54:37.471Z,92.20
2018-02-02T16:57:06.501Z,92.80
2018-02-02T16:59:34.247Z,92.80
2018-02-02T17:02:03.143Z,93.20
2018-02-02T17:04:30.908Z,93.50
2018-02-02T17:06:59.067Z,93.90
2018-02-02T17:09:26.658Z,94.10
2018-02-02T17:11:54.233Z,94.00
2018-02-02T17:14:21.807Z,94.00
2018-02-02T17:16:49.355Z,94.10
2018-02-02T17:19:16.930Z,93.60
2018-02-02T17:21:45.217Z,93.80
2018-02-02T17:24:12.797Z,93.80
2018-02-02T17:26:40.331Z,93.80
2018-02-02T17:29:08.958Z,94.30
2018-02-02T17:31:36.611Z,94.30
2018-02-02T17:34:04.435Z,94.50
2018-02-02T17:36:32.289Z,94.80
2018-02-02T17:39:00.152Z,94.90
2018-02-02T17:41:27.829Z,95.20
2018-02-02T17:43:56.413Z,95.50
2018-02-02T17:46:23.962Z,95.50
2018-02-02T17:48:51.556Z,95.50
2018-02-02T17:51:20.394Z,95.70
2018-02-02T17:53:47.995Z,95.70
2018-02-02T17:56:16.274Z,96.00
2018-02-02T17:58:43.865Z,96.50
2018-02-02T18:01:24.231Z,96.60
2018-02-02T18:03:52.639Z,96.20
2018-02-02T18:06:20.167Z,96.50
2018-02-02T18:08:47.771Z,96.40
2018-02-02T18:11:16.080Z,97.00
2018-02-02T18:13:44.779Z,96.90
2018-02-02T18:16:12.853Z,97.10
2018-02-02T18:18:41.254Z,97.00
2018-02-02T18:21:10.478Z,97.00
2018-02-02T18:23:42.292Z,97.30
2018-02-02T18:26:10.510Z,97.40
2018-02-02T18:28:38.125Z,97.50
2018-02-02T18:31:05.758Z,97.80
2018-02-02T18:33:34.249Z,97.90
2018-02-02T18:36:02.670Z,98.10
2018-02-02T18:38:30.321Z,98.00
2018-02-02T18:40:58.953Z,97.80
2018-02-02T18:43:27.273Z,97.80
2018-02-02T18:45:54.826Z,97.90
2018-02-02T18:48:23.903Z,98.00
2018-02-02T18:50:52.689Z,98.00
2018-02-02T18:53:20.843Z,98.00
2018-02-02T18:55:49.347Z,97.50
2018-02-02T18:58:16.880Z,97.70
2018-02-02T19:00:44.474Z,97.60
2018-02-02T19:03:12.805Z,97.90
2018-02-02T19:05:40.411Z,97.90
2018-02-02T19:08:08.853Z,98.10
2018-02-02T19:10:38.209Z,97.90
2018-02-02T19:13:06.184Z,98.10
2018-02-02T19:15:35.011Z,98.00
2018-02-02T19:18:03.590Z,97.80
2018-02-02T19:20:31.135Z,97.80
2018-02-02T19:22:58.710Z,97.60
2018-02-02T19:25:27.862Z,97.60
2018-02-02T19:27:55.770Z,97.60
2018-02-02T19:30:23.334Z,97.50
2018-02-02T19:32:52.703Z,97.60
2018-02-02T19:35:20.628Z,97.40
2018-02-02T19:37:48.233Z,97.20
2018-02-02T19:40:16.824Z,97.10
2018-02-02T19:42:44.949Z,97.30
2018-02-02T19:45:13.416Z,97.60
2018-02-02T19:47:41.034Z,97.50
2018-02-02T19:50:09.434Z,96.80
2018-02-02T19:52:37.119Z,96.10
2018-02-02T19:55:06.384Z,96.50
2018-02-02T19:57:34.050Z,96.60
2018-02-02T20:00:01.805Z,97.00
2018-02-02T20:02:30.272Z,97.20
2018-02-02T23:58:40.728Z,99.90
